Time;durP1;ratioP1;P1;durP2;ratioP2;P2;SDS_P1;SDS_P2;PMS_P1;PMS_P2;Temp;Humidity;BMP_temperature;BMP_pressure;BME280_temperature;BME280_humidity;BME280_pressure;Samples;Min_cycle;Max_cycle;Signal;HPM_P1;HPM_P2
2023/04/19 00:02:24;;;;;;;50.35;27.25;;;;;;;;;;6275123;28;20051;-59
2023/04/19 00:05:25;;;;;;;47.90;26.02;;;;;;;;;;6281909;28;20102;-59
2023/04/19 00:08:25;;;;;;;49.78;25.10;;;;;;;;;;6281617;28;20499;-58
2023/04/19 00:11:26;;;;;;;50.30;25.65;;;;;;;;;;6290147;28;20101;-58
2023/04/19 00:14:27;;;;;;;45.53;24.33;;;;;;;;;;6281764;28;20079;-57
2023/04/19 00:17:27;;;;;;;50.40;26.23;;;;;;;;;;6274166;28;20139;-59
2023/04/19 00:20:28;;;;;;;49.75;24.98;;;;;;;;;;6284012;28;20052;-59
2023/04/19 00:23:29;;;;;;;47.67;26.60;;;;;;;;;;6271272;28;20126;-57
2023/04/19 00:26:30;;;;;;;46.33;24.27;;;;;;;;;;6266975;28;20040;-56
2023/04/19 00:29:30;;;;;;;48.13;24.73;;;;;;;;;;6282509;28;20052;-58
2023/04/19 00:32:31;;;;;;;47.08;24.92;;;;;;;;;;6274429;28;21069;-58
2023/04/19 00:35:31;;;;;;;49.47;24.88;;;;;;;;;;6270981;28;20037;-55
2023/04/19 00:38:32;;;;;;;44.42;24.73;;;;;;;;;;6271369;28;20044;-58
2023/04/19 00:41:32;;;;;;;47.60;24.10;;;;;;;;;;6270222;28;20045;-53
2023/04/19 00:44:33;;;;;;;42.00;22.67;;;;;;;;;;6269910;28;20048;-58
2023/04/19 00:47:34;;;;;;;44.33;22.67;;;;;;;;;;6273842;28;20048;-59
2023/04/19 00:50:35;;;;;;;44.20;23.48;;;;;;;;;;6270161;28;20393;-59
2023/04/19 00:53:37;;;;;;;45.78;23.25;;;;;;;;;;6269412;28;20048;-58
2023/04/19 00:56:38;;;;;;;44.50;23.02;;;;;;;;;;6268603;28;20684;-52
2023/04/19 00:59:39;;;;;;;41.87;22.57;;;;;;;;;;6269379;28;20072;-58
2023/04/19 01:02:40;;;;;;;40.78;21.70;;;;;;;;;;6273176;28;20052;-59
2023/04/19 01:05:41;;;;;;;40.08;22.42;;;;;;;;;;6275565;28;20048;-59
2023/04/19 01:08:42;;;;;;;41.33;21.95;;;;;;;;;;6272758;28;20486;-58
2023/04/19 01:11:42;;;;;;;38.65;20.52;;;;;;;;;;6273081;28;20049;-58
2023/04/19 01:14:43;;;;;;;37.50;20.17;;;;;;;;;;6267326;28;20121;-58
2023/04/19 01:17:43;;;;;;;38.75;21.83;;;;;;;;;;6266749;28;20052;-58
2023/04/19 01:20:44;;;;;;;41.88;21.92;;;;;;;;;;6269635;28;20133;-59
2023/04/19 01:23:45;;;;;;;40.83;20.50;;;;;;;;;;6268130;28;20558;-59
2023/04/19 01:26:45;;;;;;;40.67;22.85;;;;;;;;;;6268548;28;20039;-59
2023/04/19 01:29:46;;;;;;;38.65;20.75;;;;;;;;;;6266835;28;20037;-55
2023/04/19 01:32:46;;;;;;;43.90;22.58;;;;;;;;;;6268822;28;20760;-57
2023/04/19 01:35:48;;;;;;;41.72;21.58;;;;;;;;;;6266565;28;20106;-56
2023/04/19 01:38:48;;;;;;;41.80;21.77;;;;;;;;;;6268375;28;20036;-57
2023/04/19 01:41:49;;;;;;;41.53;21.88;;;;;;;;;;6270131;28;20800;-56
2023/04/19 01:44:50;;;;;;;41.13;22.60;;;;;;;;;;6266272;28;20526;-59
2023/04/19 01:47:51;;;;;;;39.38;21.48;;;;;;;;;;6265185;28;20064;-58
2023/04/19 01:50:51;;;;;;;42.78;22.98;;;;;;;;;;6268112;28;20045;-58
2023/04/19 01:53:53;;;;;;;43.13;23.00;;;;;;;;;;6274581;28;20055;-58
2023/04/19 01:56:54;;;;;;;40.75;21.20;;;;;;;;;;6278233;28;20048;-56
2023/04/19 01:59:54;;;;;;;37.53;20.38;;;;;;;;;;6267039;28;20114;-58
2023/04/19 02:02:55;;;;;;;38.28;21.23;;;;;;;;;;6272013;28;20376;-57
2023/04/19 02:05:55;;;;;;;39.55;20.60;;;;;;;;;;6269520;28;20396;-58
2023/04/19 02:08:56;;;;;;;39.30;20.58;;;;;;;;;;6267339;28;20040;-57
2023/04/19 02:11:57;;;;;;;34.17;18.40;;;;;;;;;;6269450;28;20045;-59
2023/04/19 02:15:00;;;;;;;35.85;19.45;;;;;;;;;;6265554;28;20087;-59
2023/04/19 02:18:01;;;;;;;34.50;18.08;;;;;;;;;;6265384;28;20041;-59
2023/04/19 02:21:02;;;;;;;34.10;17.83;;;;;;;;;;6267225;28;20060;-60
2023/04/19 02:24:02;;;;;;;36.88;18.42;;;;;;;;;;6288476;28;20091;-58
2023/04/19 02:27:03;;;;;;;35.78;17.42;;;;;;;;;;6271504;28;20060;-59
2023/04/19 02:30:04;;;;;;;32.47;17.25;;;;;;;;;;6267220;28;20045;-59
2023/04/19 02:33:05;;;;;;;34.55;17.08;;;;;;;;;;6266170;28;20079;-58
2023/04/19 02:36:05;;;;;;;34.20;16.85;;;;;;;;;;6265527;28;20530;-59
2023/04/19 02:39:06;;;;;;;33.25;16.83;;;;;;;;;;6270244;28;20041;-57
2023/04/19 02:42:07;;;;;;;33.17;16.95;;;;;;;;;;6270612;28;20107;-58
2023/04/19 02:45:08;;;;;;;30.33;16.20;;;;;;;;;;6279560;28;20127;-58
2023/04/19 02:48:08;;;;;;;31.88;16.70;;;;;;;;;;6272280;28;20041;-56
2023/04/19 02:51:18;;;;;;;33.72;18.08;;;;;;;;;;6275869;28;20091;-58
2023/04/19 02:54:18;;;;;;;34.58;17.55;;;;;;;;;;6293414;28;20435;-56
2023/04/19 02:57:19;;;;;;;31.02;17.30;;;;;;;;;;6273688;28;20047;-57
2023/04/19 03:00:20;;;;;;;32.67;16.40;;;;;;;;;;6272744;28;20048;-58
2023/04/19 03:03:20;;;;;;;32.25;16.42;;;;;;;;;;6267745;28;20052;-58
2023/04/19 03:06:21;;;;;;;30.88;16.30;;;;;;;;;;6273223;28;20056;-58
2023/04/19 03:09:22;;;;;;;29.92;16.13;;;;;;;;;;6272614;28;20044;-57
2023/04/19 03:12:22;;;;;;;32.60;16.30;;;;;;;;;;6280978;28;20052;-58
2023/04/19 03:15:23;;;;;;;31.27;16.48;;;;;;;;;;6279009;28;20102;-58
2023/04/19 03:18:23;;;;;;;31.00;15.90;;;;;;;;;;6272529;28;20040;-58
2023/04/19 03:21:26;;;;;;;32.03;15.57;;;;;;;;;;6271154;28;20052;-57
2023/04/19 03:24:28;;;;;;;;;;;;;;;;;;6271951;28;20515;-54
2023/04/19 03:27:28;;;;;;;31.83;16.33;;;;;;;;;;6269603;28;19920;-57
2023/04/19 03:30:29;;;;;;;30.13;15.98;;;;;;;;;;6271669;28;20059;-57
2023/04/19 03:33:30;;;;;;;30.88;16.80;;;;;;;;;;6293038;28;20090;-57
2023/04/19 03:36:31;;;;;;;31.45;16.88;;;;;;;;;;6278750;28;20049;-51
2023/04/19 03:39:31;;;;;;;31.48;16.77;;;;;;;;;;6270295;28;20041;-57
2023/04/19 03:42:32;;;;;;;33.35;16.88;;;;;;;;;;6271579;28;20055;-58
2023/04/19 03:45:33;;;;;;;33.10;16.73;;;;;;;;;;6269279;28;20071;-57
2023/04/19 03:48:34;;;;;;;35.00;18.02;;;;;;;;;;6272056;28;20397;-56
2023/04/19 03:51:35;;;;;;;35.35;17.80;;;;;;;;;;6279742;28;20048;-56
2023/04/19 03:54:35;;;;;;;33.20;17.40;;;;;;;;;;6268966;28;20554;-55
2023/04/19 03:57:36;;;;;;;34.00;17.27;;;;;;;;;;6269656;28;20437;-56
2023/04/19 04:00:36;;;;;;;34.03;17.33;;;;;;;;;;6270459;28;20051;-56
2023/04/19 04:03:37;;;;;;;41.10;19.65;;;;;;;;;;6270880;28;20045;-56
2023/04/19 04:06:38;;;;;;;38.42;19.40;;;;;;;;;;6266319;28;20049;-57
2023/04/19 04:09:38;;;;;;;42.72;21.17;;;;;;;;;;6266890;28;20056;-57
2023/04/19 04:12:39;;;;;;;40.38;19.92;;;;;;;;;;6266584;28;20041;-56
2023/04/19 04:15:39;;;;;;;37.38;18.90;;;;;;;;;;6266231;28;20091;-51
2023/04/19 04:18:40;;;;;;;39.08;19.52;;;;;;;;;;6267926;28;20044;-53
2023/04/19 04:21:40;;;;;;;37.13;18.42;;;;;;;;;;6263466;28;20073;-58
2023/04/19 04:24:41;;;;;;;49.60;22.17;;;;;;;;;;6269760;28;20036;-57
2023/04/19 04:27:45;;;;;;;49.10;22.42;;;;;;;;;;6265844;28;20044;-54
2023/04/19 04:30:46;;;;;;;44.08;21.65;;;;;;;;;;6267911;28;20037;-53
2023/04/19 04:33:46;;;;;;;46.10;21.35;;;;;;;;;;6266327;28;20634;-57
2023/04/19 04:36:49;;;;;;;41.05;20.05;;;;;;;;;;6267970;28;20048;-58
2023/04/19 04:39:50;;;;;;;43.33;20.17;;;;;;;;;;6268955;28;20049;-53
2023/04/19 04:42:51;;;;;;;45.25;20.38;;;;;;;;;;6269352;28;20037;-57
2023/04/19 04:45:54;;;;;;;37.17;19.13;;;;;;;;;;6267354;28;20496;-54
2023/04/19 04:48:54;;;;;;;39.75;18.95;;;;;;;;;;6268604;28;20036;-57
2023/04/19 04:51:55;;;;;;;39.10;19.33;;;;;;;;;;6266311;28;20127;-57
2023/04/19 04:54:55;;;;;;;30.98;16.13;;;;;;;;;;6268213;28;20041;-58
2023/04/19 04:57:56;;;;;;;31.63;15.95;;;;;;;;;;6266230;28;20052;-57
2023/04/19 05:00:56;;;;;;;28.20;14.93;;;;;;;;;;6271761;28;20037;-56
2023/04/19 05:03:57;;;;;;;30.15;15.98;;;;;;;;;;6270767;28;20415;-58
2023/04/19 05:06:58;;;;;;;28.20;15.95;;;;;;;;;;6265642;28;20190;-57
2023/04/19 05:09:58;;;;;;;27.00;14.32;;;;;;;;;;6265536;28;20045;-57
2023/04/19 05:13:00;;;;;;;30.00;17.25;;;;;;;;;;6266949;28;20496;-59
2023/04/19 05:16:00;;;;;;;36.72;17.42;;;;;;;;;;6267703;28;20568;-52
2023/04/19 05:19:01;;;;;;;31.80;15.23;;;;;;;;;;6264535;28;20057;-57
2023/04/19 05:22:02;;;;;;;41.75;18.30;;;;;;;;;;6283668;28;20049;-53
2023/04/19 05:25:02;;;;;;;26.67;13.75;;;;;;;;;;6286648;28;20621;-56
2023/04/19 05:28:03;;;;;;;23.98;12.80;;;;;;;;;;6268992;28;20085;-58
2023/04/19 05:31:04;;;;;;;25.70;14.05;;;;;;;;;;6291100;28;20767;-53
2023/04/19 05:34:05;;;;;;;29.05;16.23;;;;;;;;;;6269173;28;20047;-57
2023/04/19 05:37:06;;;;;;;26.13;13.55;;;;;;;;;;6266174;28;20403;-57
2023/04/19 05:40:10;;;;;;;26.17;13.63;;;;;;;;;;6266641;28;20892;-57
2023/04/19 05:43:10;;;;;;;24.60;13.60;;;;;;;;;;6267244;28;20052;-56
2023/04/19 05:46:11;;;;;;;24.60;13.63;;;;;;;;;;6265263;28;20041;-56
2023/04/19 05:49:12;;;;;;;23.17;12.68;;;;;;;;;;6267797;28;20041;-54
2023/04/19 05:52:12;;;;;;;24.30;13.38;;;;;;;;;;6279946;28;20040;-56
2023/04/19 05:55:13;;;;;;;25.73;13.52;;;;;;;;;;6277642;28;20028;-57
2023/04/19 05:58:14;;;;;;;29.08;15.45;;;;;;;;;;6262378;28;20517;-56
2023/04/19 06:01:15;;;;;;;30.52;16.13;;;;;;;;;;6276565;28;20055;-56
2023/04/19 06:04:15;;;;;;;25.60;14.40;;;;;;;;;;6268523;28;20056;-56
2023/04/19 06:07:17;;;;;;;25.15;14.18;;;;;;;;;;6266942;28;20053;-57
2023/04/19 06:10:17;;;;;;;18.52;10.80;;;;;;;;;;6268235;28;20413;-59
2023/04/19 06:13:18;;;;;;;16.55;9.32;;;;;;;;;;6270399;28;20045;-55
2023/04/19 06:16:19;;;;;;;13.02;7.55;;;;;;;;;;6267069;28;20518;-56
2023/04/19 06:19:20;;;;;;;12.52;7.03;;;;;;;;;;6285788;28;20242;-54
2023/04/19 06:22:20;;;;;;;10.05;6.63;;;;;;;;;;6287140;28;20063;-59
2023/04/19 06:25:21;;;;;;;11.57;7.25;;;;;;;;;;6289691;28;20059;-55
2023/04/19 06:28:22;;;;;;;12.30;6.50;;;;;;;;;;6288916;28;20063;-57
2023/04/19 06:31:22;;;;;;;11.82;6.60;;;;;;;;;;6273691;28;20047;-56
2023/04/19 06:34:23;;;;;;;8.77;5.13;;;;;;;;;;6288138;28;20051;-56
2023/04/19 06:37:23;;;;;;;8.10;4.95;;;;;;;;;;6267448;28;20434;-58
2023/04/19 06:40:25;;;;;;;9.43;4.88;;;;;;;;;;6266098;28;20592;-56
2023/04/19 06:43:26;;;;;;;8.47;4.80;;;;;;;;;;6265552;28;20059;-54
2023/04/19 06:46:27;;;;;;;9.57;6.00;;;;;;;;;;6263819;28;20349;-57
2023/04/19 06:49:27;;;;;;;10.13;5.75;;;;;;;;;;6265445;28;20048;-59
2023/04/19 06:52:28;;;;;;;9.05;5.55;;;;;;;;;;6268107;28;20075;-50
2023/04/19 06:55:28;;;;;;;9.85;5.47;;;;;;;;;;6265067;28;20149;-59
2023/04/19 06:58:31;;;;;;;9.70;5.53;;;;;;;;;;6265455;28;21468;-56
2023/04/19 07:01:31;;;;;;;9.98;5.65;;;;;;;;;;6263912;28;20044;-57
2023/04/19 07:04:32;;;;;;;8.70;5.47;;;;;;;;;;6268969;28;20175;-56
2023/04/19 07:07:33;;;;;;;8.90;5.05;;;;;;;;;;6264641;28;20045;-54
2023/04/19 07:10:34;;;;;;;10.15;6.05;;;;;;;;;;6275228;28;20060;-57
2023/04/19 07:13:34;;;;;;;12.43;6.97;;;;;;;;;;6270397;28;20049;-59
2023/04/19 07:16:35;;;;;;;10.98;6.20;;;;;;;;;;6266206;28;20065;-56
2023/04/19 07:19:35;;;;;;;10.02;5.00;;;;;;;;;;6267708;28;20041;-57
2023/04/19 07:22:36;;;;;;;12.48;5.78;;;;;;;;;;6266511;28;20590;-55
2023/04/19 07:25:36;;;;;;;7.00;3.92;;;;;;;;;;6264563;28;20045;-55
2023/04/19 07:28:38;;;;;;;7.20;3.65;;;;;;;;;;6264343;28;20043;-57
2023/04/19 07:31:40;;;;;;;7.95;3.83;;;;;;;;;;6262268;28;20131;-60
2023/04/19 07:34:42;;;;;;;7.57;3.88;;;;;;;;;;6264221;28;20480;-59
2023/04/19 07:37:42;;;;;;;6.67;3.73;;;;;;;;;;6267433;28;20048;-57
2023/04/19 07:40:43;;;;;;;8.07;4.13;;;;;;;;;;6271863;28;20510;-58
2023/04/19 07:43:44;;;;;;;8.35;4.70;;;;;;;;;;6270300;28;20044;-58
2023/04/19 07:46:44;;;;;;;8.55;4.45;;;;;;;;;;6269876;28;20067;-58
2023/04/19 07:49:45;;;;;;;8.25;4.38;;;;;;;;;;6271777;28;20412;-56
2023/04/19 07:52:45;;;;;;;9.07;4.90;;;;;;;;;;6280239;28;20132;-59
2023/04/19 07:55:46;;;;;;;8.18;4.88;;;;;;;;;;6269549;28;20071;-57
2023/04/19 07:58:47;;;;;;;9.18;4.22;;;;;;;;;;6268165;28;20848;-58
2023/04/19 08:01:48;;;;;;;9.27;4.60;;;;;;;;;;6270357;28;20036;-59
2023/04/19 08:04:50;;;;;;;7.72;4.05;;;;;;;;;;6273609;28;20120;-58
2023/04/19 08:07:52;;;;;;;8.55;4.20;;;;;;;;;;6266934;28;20098;-60
2023/04/19 08:10:55;;;;;;;9.00;4.82;;;;;;;;;;6267975;28;20057;-59
2023/04/19 08:13:55;;;;;;;10.73;6.45;;;;;;;;;;6269198;28;20044;-59
2023/04/19 08:16:56;;;;;;;12.02;5.65;;;;;;;;;;6265418;28;20048;-60
2023/04/19 08:19:57;;;;;;;10.52;5.88;;;;;;;;;;6266928;28;20045;-58
2023/04/19 08:22:58;;;;;;;10.13;5.88;;;;;;;;;;6270165;28;20056;-58
2023/04/19 08:25:58;;;;;;;10.40;5.82;;;;;;;;;;6267814;28;20532;-58
2023/04/19 08:28:59;;;;;;;8.82;4.85;;;;;;;;;;6267255;28;20253;-59
2023/04/19 08:32:00;;;;;;;8.38;4.50;;;;;;;;;;6270574;28;20448;-58
2023/04/19 08:35:02;;;;;;;7.72;4.43;;;;;;;;;;6270018;28;20062;-58
2023/04/19 08:38:03;;;;;;;10.90;5.32;;;;;;;;;;6271342;28;20051;-59
2023/04/19 08:41:04;;;;;;;10.32;5.18;;;;;;;;;;6276331;28;20056;-56
2023/04/19 08:44:05;;;;;;;9.00;4.40;;;;;;;;;;6268168;28;20496;-57
2023/04/19 08:47:07;;;;;;;8.93;4.27;;;;;;;;;;6267090;28;20037;-58
2023/04/19 08:50:08;;;;;;;8.57;4.83;;;;;;;;;;6271293;28;20045;-59
2023/04/19 08:53:09;;;;;;;12.48;5.97;;;;;;;;;;6269626;28;20037;-58
2023/04/19 08:56:10;;;;;;;8.63;4.47;;;;;;;;;;6268379;28;20095;-59
2023/04/19 08:59:12;;;;;;;8.82;4.70;;;;;;;;;;6268241;28;20052;-58
2023/04/19 09:02:14;;;;;;;9.05;4.85;;;;;;;;;;6270983;28;20629;-55
2023/04/19 09:05:16;;;;;;;9.00;5.28;;;;;;;;;;6269604;28;20063;-60
2023/04/19 09:08:25;;;;;;;;;;;;;;;;;;6268786;28;20041;-56
2023/04/19 09:11:39;;;;;;;8.70;4.35;;;;;;;;;;6269541;28;19924;-58
2023/04/19 09:14:43;;;;;;;9.27;4.80;;;;;;;;;;6265720;28;20389;-59
2023/04/19 09:18:03;;;;;;;9.45;4.55;;;;;;;;;;6272308;28;20052;-54
2023/04/19 09:21:04;;;;;;;8.02;4.30;;;;;;;;;;6268633;28;20049;-55
2023/04/19 09:24:05;;;;;;;9.50;4.07;;;;;;;;;;6270478;28;20041;-53
2023/04/19 09:27:06;;;;;;;7.18;3.30;;;;;;;;;;6268500;28;20085;-53
2023/04/19 09:30:07;;;;;;;7.72;3.72;;;;;;;;;;6267989;28;20433;-58
2023/04/19 09:33:07;;;;;;;8.57;4.18;;;;;;;;;;6268838;28;20051;-57
2023/04/19 09:36:08;;;;;;;7.38;3.75;;;;;;;;;;6267754;28;20044;-58
2023/04/19 09:39:09;;;;;;;5.95;3.60;;;;;;;;;;6262552;28;20057;-54
2023/04/19 09:42:10;;;;;;;7.70;3.78;;;;;;;;;;6265259;28;20466;-57
2023/04/19 09:45:11;;;;;;;6.50;3.72;;;;;;;;;;6266125;28;20052;-56
2023/04/19 09:48:12;;;;;;;7.68;3.42;;;;;;;;;;6265357;28;20415;-58
2023/04/19 09:51:13;;;;;;;7.22;3.97;;;;;;;;;;6266151;28;20048;-58
2023/04/19 09:54:16;;;;;;;5.78;3.22;;;;;;;;;;6265352;28;20460;-57
2023/04/19 09:57:16;;;;;;;6.18;2.80;;;;;;;;;;6268012;28;20206;-58
2023/04/19 10:00:17;;;;;;;7.28;3.40;;;;;;;;;;6267290;28;20053;-58
2023/04/19 10:03:22;;;;;;;6.82;3.30;;;;;;;;;;6267164;28;20596;-59
2023/04/19 10:06:23;;;;;;;7.03;3.58;;;;;;;;;;6269667;28;20059;-57
2023/04/19 10:09:25;;;;;;;9.32;5.00;;;;;;;;;;6264387;28;20385;-57
2023/04/19 10:12:26;;;;;;;10.63;5.70;;;;;;;;;;6267600;28;20049;-55
2023/04/19 10:15:29;;;;;;;12.20;6.70;;;;;;;;;;6266271;28;20038;-59
2023/04/19 10:18:31;;;;;;;12.57;7.18;;;;;;;;;;6268471;28;20044;-57
2023/04/19 10:21:32;;;;;;;14.65;8.90;;;;;;;;;;6263180;28;20056;-56
2023/04/19 10:24:33;;;;;;;15.53;9.20;;;;;;;;;;6269550;28;20546;-53
2023/04/19 10:27:33;;;;;;;14.30;7.95;;;;;;;;;;6267196;28;20048;-56
2023/04/19 10:30:34;;;;;;;15.60;8.88;;;;;;;;;;6267687;28;20049;-57
2023/04/19 10:33:36;;;;;;;17.02;8.07;;;;;;;;;;6265710;28;20048;-58
2023/04/19 10:36:37;;;;;;;13.45;8.30;;;;;;;;;;6265369;28;20525;-55
2023/04/19 10:39:42;;;;;;;14.13;8.18;;;;;;;;;;6260558;28;20045;-57
2023/04/19 10:43:09;;;;;;;17.98;9.90;;;;;;;;;;6266554;28;20063;-61
2023/04/19 10:46:15;;;;;;;17.95;10.30;;;;;;;;;;6270847;28;20139;-58
2023/04/19 10:49:16;;;;;;;17.95;9.55;;;;;;;;;;6266123;28;20076;-59
2023/04/19 10:52:26;;;;;;;16.63;10.65;;;;;;;;;;6265148;28;20436;-58
2023/04/19 10:55:32;;;;;;;15.02;9.00;;;;;;;;;;6265170;28;20175;-58
2023/04/19 10:59:04;;;;;;;15.70;9.50;;;;;;;;;;6264099;28;20052;-57
2023/04/19 11:02:27;;;;;;;16.52;9.38;;;;;;;;;;6268749;28;21273;-55
2023/04/19 11:05:28;;;;;;;19.45;11.10;;;;;;;;;;6266214;28;20059;-59
2023/04/19 11:08:29;;;;;;;18.55;10.45;;;;;;;;;;6270579;28;20598;-59
2023/04/19 11:11:33;;;;;;;16.50;10.30;;;;;;;;;;6271226;28;20060;-59
2023/04/19 11:14:38;;;;;;;18.92;9.93;;;;;;;;;;6273546;28;20058;-59
2023/04/19 11:17:40;;;;;;;17.35;10.38;;;;;;;;;;6273053;28;20419;-58
2023/04/19 11:20:41;;;;;;;19.98;10.63;;;;;;;;;;6275896;28;20052;-59
2023/04/19 11:23:42;;;;;;;22.33;11.05;;;;;;;;;;6273366;28;20049;-58
2023/04/19 11:26:49;;;;;;;18.98;10.80;;;;;;;;;;6272224;28;20062;-59
2023/04/19 11:29:50;;;;;;;20.10;11.88;;;;;;;;;;6272367;28;20051;-59
2023/04/19 11:32:52;;;;;;;17.90;9.73;;;;;;;;;;6275238;28;20962;-58
2023/04/19 11:35:53;;;;;;;;;;;;;;;;;;6280527;28;20036;-60
2023/04/19 11:38:54;;;;;;;22.65;10.88;;;;;;;;;;6280840;28;20282;-57
2023/04/19 11:41:55;;;;;;;22.50;11.68;;;;;;;;;;6278725;28;20059;-58
2023/04/19 11:44:57;;;;;;;25.63;13.45;;;;;;;;;;6278500;28;20041;-59
2023/04/19 11:47:58;;;;;;;25.40;14.52;;;;;;;;;;6278404;28;20041;-57
2023/04/19 11:51:00;;;;;;;25.33;13.40;;;;;;;;;;6274925;28;20151;-59
2023/04/19 11:54:00;;;;;;;24.85;13.70;;;;;;;;;;6276749;28;20085;-58
2023/04/19 11:57:06;;;;;;;25.13;13.35;;;;;;;;;;6277240;28;20049;-56
2023/04/19 12:00:11;;;;;;;21.98;11.88;;;;;;;;;;6277904;28;20108;-59
2023/04/19 12:03:11;;;;;;;20.20;10.90;;;;;;;;;;6278681;28;20558;-58
2023/04/19 12:06:17;;;;;;;20.90;11.60;;;;;;;;;;6280183;28;20049;-55
2023/04/19 12:09:19;;;;;;;23.63;12.50;;;;;;;;;;6280116;28;20052;-59
2023/04/19 12:12:32;;;;;;;24.92;12.82;;;;;;;;;;6271200;28;20512;-59
2023/04/19 12:15:43;;;;;;;29.77;13.00;;;;;;;;;;6276247;28;20052;-59
2023/04/19 12:18:49;;;;;;;22.70;12.45;;;;;;;;;;6271648;28;20059;-60
2023/04/19 12:21:50;;;;;;;24.77;12.70;;;;;;;;;;6274694;28;20056;-59
2023/04/19 12:24:52;;;;;;;25.63;13.23;;;;;;;;;;6276816;28;20101;-59
2023/04/19 12:27:53;;;;;;;24.15;13.20;;;;;;;;;;6275697;28;20044;-57
2023/04/19 12:30:53;;;;;;;29.73;14.93;;;;;;;;;;6277336;28;20700;-59
2023/04/19 12:33:54;;;;;;;27.23;15.00;;;;;;;;;;6278042;28;20049;-57
2023/04/19 12:36:54;;;;;;;29.25;14.82;;;;;;;;;;6278561;28;20036;-60
2023/04/19 12:39:55;;;;;;;32.63;14.68;;;;;;;;;;6275977;28;20534;-58
2023/04/19 12:42:56;;;;;;;26.10;14.25;;;;;;;;;;6278170;28;20137;-59
2023/04/19 12:45:57;;;;;;;28.23;14.25;;;;;;;;;;6280855;28;20041;-57
2023/04/19 12:48:58;;;;;;;28.08;15.00;;;;;;;;;;6268108;28;20478;-59
2023/04/19 12:51:59;;;;;;;29.20;16.10;;;;;;;;;;6267444;28;20053;-59
2023/04/19 12:54:59;;;;;;;29.17;14.93;;;;;;;;;;6269913;28;20041;-59
2023/04/19 12:58:00;;;;;;;31.70;16.67;;;;;;;;;;6269677;28;20040;-58
2023/04/19 13:01:01;;;;;;;31.77;16.88;;;;;;;;;;6269477;28;20063;-59
2023/04/19 13:04:01;;;;;;;35.88;17.42;;;;;;;;;;6273197;28;20054;-58
2023/04/19 13:07:02;;;;;;;30.75;16.00;;;;;;;;;;6269710;28;20052;-60
2023/04/19 13:10:03;;;;;;;27.42;15.30;;;;;;;;;;6270026;28;20048;-60
2023/04/19 13:13:03;;;;;;;33.65;16.42;;;;;;;;;;6267735;28;20059;-59
2023/04/19 13:16:06;;;;;;;36.67;16.17;;;;;;;;;;6270451;28;20139;-56
2023/04/19 13:19:07;;;;;;;30.98;13.80;;;;;;;;;;6266820;28;20049;-53
2023/04/19 13:22:07;;;;;;;28.88;14.27;;;;;;;;;;6267998;28;20135;-59
2023/04/19 13:25:08;;;;;;;29.80;15.18;;;;;;;;;;6268612;28;20044;-58
2023/04/19 13:28:09;;;;;;;36.53;17.05;;;;;;;;;;6267213;28;20102;-58
2023/04/19 13:31:09;;;;;;;35.13;15.75;;;;;;;;;;6266548;28;20506;-54
2023/04/19 13:34:10;;;;;;;33.83;17.38;;;;;;;;;;6269229;28;20144;-57
2023/04/19 13:37:10;;;;;;;33.35;16.35;;;;;;;;;;6269451;28;20076;-58
2023/04/19 13:40:11;;;;;;;35.75;15.82;;;;;;;;;;6270242;28;20045;-54
2023/04/19 13:43:12;;;;;;;40.00;17.67;;;;;;;;;;6270244;28;20047;-57
2023/04/19 13:46:13;;;;;;;34.53;16.02;;;;;;;;;;6268017;28;20037;-58
2023/04/19 13:49:13;;;;;;;36.15;16.20;;;;;;;;;;6268141;28;20052;-58
2023/04/19 13:52:14;;;;;;;42.05;18.85;;;;;;;;;;6268096;28;20567;-58
2023/04/19 13:55:15;;;;;;;34.67;16.10;;;;;;;;;;6271067;28;20898;-58
2023/04/19 13:58:15;;;;;;;42.90;18.17;;;;;;;;;;6268203;28;20416;-59
2023/04/19 14:01:16;;;;;;;40.90;18.83;;;;;;;;;;6267208;28;20473;-56
2023/04/19 14:04:17;;;;;;;40.45;18.20;;;;;;;;;;6269196;28;20053;-57
2023/04/19 14:07:18;;;;;;;40.75;17.55;;;;;;;;;;6268116;28;20559;-58
2023/04/19 14:10:19;;;;;;;37.00;18.45;;;;;;;;;;6268515;28;20040;-58
2023/04/19 14:13:19;;;;;;;41.53;18.75;;;;;;;;;;6268062;28;20799;-59
2023/04/19 14:16:23;;;;;;;39.00;18.17;;;;;;;;;;6268751;28;20127;-57
2023/04/19 14:19:24;;;;;;;40.90;19.35;;;;;;;;;;6272564;28;20110;-58
2023/04/19 14:22:25;;;;;;;40.60;19.08;;;;;;;;;;6265495;28;20479;-56
2023/04/19 14:25:25;;;;;;;34.92;16.73;;;;;;;;;;6267289;28;20428;-60
2023/04/19 14:28:26;;;;;;;38.22;17.88;;;;;;;;;;6266985;28;20241;-54
2023/04/19 14:31:26;;;;;;;42.45;18.70;;;;;;;;;;6267661;28;20075;-58
2023/04/19 14:34:27;;;;;;;42.13;19.80;;;;;;;;;;6267076;28;20052;-59
2023/04/19 14:37:28;;;;;;;39.00;18.85;;;;;;;;;;6269809;28;20037;-58
2023/04/19 14:40:28;;;;;;;42.03;19.48;;;;;;;;;;6268571;28;20692;-57
2023/04/19 14:43:29;;;;;;;41.53;18.48;;;;;;;;;;6265626;28;20056;-59
2023/04/19 14:46:30;;;;;;;39.97;18.58;;;;;;;;;;6267731;28;20121;-59
2023/04/19 14:49:30;;;;;;;42.03;19.15;;;;;;;;;;6270050;28;20070;-58
2023/04/19 14:52:31;;;;;;;42.20;19.75;;;;;;;;;;6268666;28;20044;-59
2023/04/19 14:55:32;;;;;;;42.53;19.77;;;;;;;;;;6272542;28;20866;-59
2023/04/19 14:58:32;;;;;;;42.22;19.77;;;;;;;;;;6267416;28;20056;-58
2023/04/19 15:01:33;;;;;;;41.88;20.08;;;;;;;;;;6269273;28;20136;-59
2023/04/19 15:04:34;;;;;;;42.58;20.95;;;;;;;;;;6271468;28;20056;-58
2023/04/19 15:07:34;;;;;;;37.95;18.75;;;;;;;;;;6268455;28;20048;-59
2023/04/19 15:10:35;;;;;;;40.60;19.17;;;;;;;;;;6272747;28;20531;-57
2023/04/19 15:13:36;;;;;;;41.63;20.55;;;;;;;;;;6275286;28;20053;-57
2023/04/19 15:16:36;;;;;;;44.78;22.30;;;;;;;;;;6274572;28;20112;-58
2023/04/19 15:19:37;;;;;;;47.13;22.02;;;;;;;;;;6275800;28;20052;-57
2023/04/19 15:22:38;;;;;;;48.95;23.60;;;;;;;;;;6273355;28;20113;-57
2023/04/19 15:25:39;;;;;;;43.55;22.33;;;;;;;;;;6274518;28;20052;-55
2023/04/19 15:28:40;;;;;;;49.97;24.02;;;;;;;;;;6274454;28;20415;-59
2023/04/19 15:31:40;;;;;;;44.78;22.05;;;;;;;;;;6276589;28;20472;-60
2023/04/19 15:34:41;;;;;;;46.83;22.90;;;;;;;;;;6280148;28;20106;-52
2023/04/19 15:37:42;;;;;;;44.13;22.77;;;;;;;;;;6277356;28;20052;-59
2023/04/19 15:40:43;;;;;;;43.78;22.83;;;;;;;;;;6278101;28;20048;-53
2023/04/19 15:43:44;;;;;;;44.10;22.52;;;;;;;;;;6278604;28;20118;-54
2023/04/19 15:46:44;;;;;;;49.83;24.33;;;;;;;;;;6278340;28;20252;-56
2023/04/19 15:49:46;;;;;;;40.55;20.58;;;;;;;;;;6276800;28;20044;-53
2023/04/19 15:52:47;;;;;;;44.65;20.90;;;;;;;;;;6275130;28;20045;-56
2023/04/19 15:55:47;;;;;;;39.92;21.02;;;;;;;;;;6281178;28;20507;-52
2023/04/19 15:58:48;;;;;;;36.55;19.27;;;;;;;;;;6282576;28;20060;-56
2023/04/19 16:01:48;;;;;;;42.40;20.25;;;;;;;;;;6280290;28;20056;-55
2023/04/19 16:04:49;;;;;;;40.75;21.08;;;;;;;;;;6281802;28;20076;-54
2023/04/19 16:08:07;;;;;;;44.05;21.35;;;;;;;;;;6288550;28;20056;-54
2023/04/19 16:11:07;;;;;;;41.22;20.50;;;;;;;;;;6283019;28;20872;-54
2023/04/19 16:14:08;;;;;;;41.28;21.23;;;;;;;;;;6285436;28;20094;-53
2023/04/19 16:17:08;;;;;;;43.92;21.92;;;;;;;;;;6289148;28;20123;-57
2023/04/19 16:20:09;;;;;;;42.45;21.67;;;;;;;;;;6285419;28;20052;-51
2023/04/19 16:23:10;;;;;;;45.45;21.92;;;;;;;;;;6286659;28;20072;-54
2023/04/19 16:26:11;;;;;;;39.28;20.60;;;;;;;;;;6287323;28;20040;-60
2023/04/19 16:29:12;;;;;;;43.25;22.27;;;;;;;;;;6286803;28;20052;-55
2023/04/19 16:32:12;;;;;;;43.95;21.17;;;;;;;;;;6288178;28;20044;-52
2023/04/19 16:35:13;;;;;;;42.85;22.02;;;;;;;;;;6290167;28;20478;-52
2023/04/19 16:38:13;;;;;;;38.95;20.85;;;;;;;;;;6287656;28;20064;-60
2023/04/19 16:41:14;;;;;;;41.30;21.08;;;;;;;;;;6283637;28;20053;-52
2023/04/19 16:44:15;;;;;;;43.38;20.73;;;;;;;;;;6285161;28;20048;-56
2023/04/19 16:47:15;;;;;;;50.90;23.85;;;;;;;;;;6288457;28;20044;-56
2023/04/19 16:50:16;;;;;;;44.25;22.95;;;;;;;;;;6289683;28;20126;-55
2023/04/19 16:53:17;;;;;;;44.35;22.63;;;;;;;;;;6287347;28;20047;-59
2023/04/19 16:56:18;;;;;;;50.20;24.38;;;;;;;;;;6286322;28;20044;-51
2023/04/19 16:59:18;;;;;;;44.93;23.33;;;;;;;;;;6281433;28;20483;-52
2023/04/19 17:02:19;;;;;;;48.03;24.60;;;;;;;;;;6282213;28;20044;-50
2023/04/19 17:05:20;;;;;;;44.17;22.92;;;;;;;;;;6285851;28;20182;-51
2023/04/19 17:08:21;;;;;;;48.20;24.17;;;;;;;;;;6279427;28;20807;-57
2023/04/19 17:11:22;;;;;;;50.17;24.40;;;;;;;;;;6280653;28;20070;-56
2023/04/19 17:14:23;;;;;;;50.63;23.92;;;;;;;;;;6291920;28;20499;-54
2023/04/19 17:17:23;;;;;;;48.47;23.63;;;;;;;;;;6282159;28;20059;-52
2023/04/19 17:20:24;;;;;;;45.88;22.73;;;;;;;;;;6280574;28;20045;-55
2023/04/19 17:23:25;;;;;;;52.42;26.25;;;;;;;;;;6282558;28;20045;-58
2023/04/19 17:26:25;;;;;;;52.85;25.13;;;;;;;;;;6281894;28;20055;-52
2023/04/19 17:29:26;;;;;;;54.58;26.40;;;;;;;;;;6281425;28;21333;-60
2023/04/19 17:32:27;;;;;;;47.38;23.00;;;;;;;;;;6282434;28;20764;-53
2023/04/19 17:35:28;;;;;;;48.42;22.10;;;;;;;;;;6287112;28;20056;-56
2023/04/19 17:38:28;;;;;;;44.30;21.38;;;;;;;;;;6284719;28;20420;-53
2023/04/19 17:41:29;;;;;;;47.38;21.92;;;;;;;;;;6284933;28;20056;-55
2023/04/19 17:44:29;;;;;;;49.95;23.75;;;;;;;;;;6289198;28;20048;-56